createdAt,value
2024-01-05T00:00:22.101Z,1397.00
2024-01-05T00:01:22.136Z,1383.00
2024-01-05T00:02:22.195Z,1350.00
2024-01-05T00:03:22.260Z,1345.00
2024-01-05T00:04:22.332Z,1332.00
2024-01-05T00:05:22.422Z,1302.00
2024-01-05T00:06:22.672Z,1293.00
2024-01-05T00:07:22.533Z,1283.00
2024-01-05T00:08:22.604Z,1263.00
2024-01-05T00:09:22.691Z,1246.00
2024-01-05T00:10:22.741Z,1243.00
2024-01-05T00:11:22.821Z,1251.00
2024-01-05T00:12:22.890Z,1242.00
2024-01-05T00:13:22.941Z,1233.00
2024-01-05T00:14:22.988Z,1217.00
2024-01-05T00:15:23.071Z,1206.00
2024-01-05T00:16:23.096Z,1211.00
2024-01-05T00:17:23.139Z,1211.00
2024-01-05T00:18:23.353Z,1198.00
2024-01-05T00:19:23.421Z,1197.00
2024-01-05T00:20:23.434Z,1190.00
2024-01-05T00:21:23.450Z,1181.00
2024-01-05T00:22:23.479Z,1199.00
2024-01-05T00:23:23.525Z,1187.00
2024-01-05T00:24:23.671Z,1148.00
2024-01-05T00:25:23.649Z,1121.00
2024-01-05T00:26:23.758Z,1113.00
2024-01-05T00:27:23.811Z,1112.00
2024-01-05T00:28:23.839Z,1123.00
2024-01-05T00:29:23.892Z,1114.00
2024-01-05T00:30:24.175Z,1120.00
2024-01-05T00:31:24.089Z,1128.00
2024-01-05T00:32:24.111Z,1132.00
2024-01-05T00:33:24.359Z,1123.00
2024-01-05T00:34:24.409Z,1123.00
2024-01-05T00:35:24.330Z,1124.00
2024-01-05T00:36:24.424Z,1123.00
2024-01-05T00:37:24.440Z,1116.00
2024-01-05T00:38:24.496Z,1120.00
2024-01-05T00:39:24.602Z,1125.00
2024-01-05T00:40:24.580Z,1125.00
2024-01-05T00:41:24.660Z,1128.00
2024-01-05T00:42:24.790Z,1136.00
2024-01-05T00:43:24.788Z,1147.00
2024-01-05T00:44:24.856Z,1157.00
2024-01-05T00:45:24.954Z,1150.00
2024-01-05T00:46:24.978Z,1153.00
2024-01-05T00:47:25.058Z,1166.00
2024-01-05T00:48:25.231Z,1178.00
2024-01-05T00:49:25.231Z,1173.00
2024-01-05T00:50:25.224Z,1185.00
2024-01-05T00:51:25.311Z,1196.00
2024-01-05T00:52:25.379Z,1195.00
2024-01-05T00:53:25.392Z,1189.00
2024-01-05T00:54:25.515Z,1192.00
2024-01-05T00:55:25.586Z,1189.00
2024-01-05T00:56:25.575Z,1191.00
2024-01-05T00:57:25.645Z,1196.00
2024-01-05T00:58:25.624Z,1177.00
2024-01-05T00:59:25.669Z,1169.00
2024-01-05T01:00:25.949Z,1153.00
2024-01-05T01:01:25.748Z,1142.00
2024-01-05T01:02:25.811Z,1130.00
2024-01-05T01:03:26.022Z,1120.00
2024-01-05T01:04:26.054Z,1111.00
2024-01-05T01:05:26.041Z,1112.00
2024-01-05T01:06:26.138Z,1100.00
2024-01-05T01:07:26.067Z,1095.00
2024-01-05T01:08:26.142Z,1091.00
2024-01-05T01:09:26.259Z,1083.00
2024-01-05T01:10:26.217Z,1101.00
2024-01-05T01:11:28.249Z,1115.00
2024-01-05T01:12:26.326Z,1142.00
2024-01-05T01:13:26.323Z,1196.00
2024-01-05T01:14:26.358Z,1219.00
2024-01-05T01:15:26.376Z,1232.00
2024-01-05T01:16:26.368Z,1240.00
2024-01-05T01:17:26.441Z,1224.00
2024-01-05T01:18:26.505Z,1222.00
2024-01-05T01:19:26.564Z,1230.00
2024-01-05T01:20:26.409Z,1235.00
2024-01-05T01:21:26.454Z,1243.00
2024-01-05T01:22:26.439Z,1261.00
2024-01-05T01:23:26.476Z,1265.00
2024-01-05T01:24:26.543Z,1259.00
2024-01-05T01:25:26.518Z,1247.00
2024-01-05T01:26:26.556Z,1266.00
2024-01-05T01:27:26.688Z,1267.00
2024-01-05T01:28:26.647Z,1262.00
2024-01-05T01:29:26.665Z,1261.00
2024-01-05T01:30:26.904Z,1241.00
2024-01-05T01:31:26.936Z,1190.00
2024-01-05T01:32:26.888Z,1144.00
2024-01-05T01:33:26.982Z,1142.00
2024-01-05T01:34:27.024Z,1115.00
2024-01-05T01:35:27.016Z,1084.00
2024-01-05T01:36:27.138Z,1064.00
2024-01-05T01:37:27.141Z,1030.00
2024-01-05T01:38:27.186Z,1001.00
2024-01-05T01:39:27.331Z,998.00
2024-01-05T01:40:27.369Z,985.00
2024-01-05T01:41:27.356Z,956.00
2024-01-05T01:42:27.558Z,937.00
2024-01-05T01:43:27.509Z,916.00
2024-01-05T01:44:27.585Z,874.00
2024-01-05T01:45:27.656Z,847.00
2024-01-05T01:46:27.684Z,805.00
2024-01-05T01:47:27.819Z,781.00
2024-01-05T01:48:27.993Z,774.00
2024-01-05T01:49:28.042Z,778.00
2024-01-05T01:50:28.068Z,777.00
2024-01-05T01:51:28.200Z,767.00
2024-01-05T01:52:28.238Z,777.00
2024-01-05T01:53:28.371Z,782.00
2024-01-05T01:54:29.214Z,777.00
2024-01-05T01:55:28.502Z,771.00
2024-01-05T01:56:28.548Z,776.00
2024-01-05T01:57:28.612Z,772.00
2024-01-05T01:58:28.631Z,777.00
2024-01-05T01:59:28.674Z,779.00
2024-01-05T02:00:28.769Z,790.00
2024-01-05T02:01:28.860Z,802.00
2024-01-05T02:02:28.801Z,824.00
2024-01-05T02:03:28.834Z,816.00
2024-01-05T02:04:29.059Z,836.00
2024-01-05T02:05:28.986Z,832.00
2024-01-05T02:06:29.067Z,822.00
2024-01-05T02:07:29.066Z,807.00
2024-01-05T02:08:29.192Z,794.00
2024-01-05T02:09:29.383Z,780.00
2024-01-05T02:10:29.353Z,745.00
2024-01-05T02:11:29.419Z,734.00
2024-01-05T02:12:29.456Z,729.00
2024-01-05T02:13:29.563Z,731.00
2024-01-05T02:14:29.632Z,731.00
2024-01-05T02:15:29.850Z,731.00
2024-01-05T02:16:29.786Z,711.00
2024-01-05T02:17:29.908Z,719.00
2024-01-05T02:18:30.080Z,709.00
2024-01-05T02:19:30.164Z,712.00
2024-01-05T02:20:30.017Z,669.00
2024-01-05T02:21:30.123Z,708.00
2024-01-05T02:22:30.087Z,809.00
2024-01-05T02:23:30.097Z,869.00
2024-01-05T02:24:30.154Z,866.00
2024-01-05T02:25:30.197Z,864.00
2024-01-05T02:26:30.227Z,882.00
2024-01-05T02:27:30.293Z,887.00
2024-01-05T02:28:30.273Z,896.00
2024-01-05T02:29:30.323Z,842.00
2024-01-05T02:30:30.480Z,818.00
2024-01-05T02:31:30.490Z,781.00
2024-01-05T02:32:31.318Z,737.00
2024-01-05T02:33:30.592Z,702.00
2024-01-05T02:34:30.624Z,722.00
2024-01-05T02:35:30.612Z,745.00
2024-01-05T02:36:30.650Z,773.00
2024-01-05T02:37:30.734Z,810.00
2024-01-05T02:38:30.719Z,834.00
2024-01-05T02:39:30.874Z,840.00
2024-01-05T02:40:30.976Z,825.00
2024-01-05T02:41:30.922Z,814.00
2024-01-05T02:42:31.045Z,758.00
2024-01-05T02:43:31.040Z,690.00
2024-01-05T02:44:31.022Z,663.00
2024-01-05T02:45:31.168Z,657.00
2024-01-05T02:46:31.159Z,681.00
2024-01-05T02:47:31.277Z,707.00
2024-01-05T02:48:31.410Z,720.00
2024-01-05T02:49:31.411Z,721.00
2024-01-05T02:50:31.377Z,709.00
2024-01-05T02:51:31.494Z,667.00
2024-01-05T02:52:31.435Z,680.00
2024-01-05T02:53:31.485Z,707.00
2024-01-05T02:54:31.606Z,736.00
2024-01-05T02:55:31.592Z,733.00
2024-01-05T02:56:31.669Z,701.00
2024-01-05T02:57:31.728Z,645.00
2024-01-05T02:58:31.694Z,629.00
2024-01-05T02:59:31.748Z,603.00
2024-01-05T03:00:31.959Z,603.00
2024-01-05T03:01:31.849Z,612.00
2024-01-05T03:02:31.881Z,620.00
2024-01-05T03:03:32.034Z,635.00
2024-01-05T03:04:32.116Z,664.00
2024-01-05T03:05:32.102Z,749.00
2024-01-05T03:06:32.217Z,800.00
2024-01-05T03:07:32.239Z,843.00
2024-01-05T03:08:32.277Z,852.00
2024-01-05T03:09:32.341Z,843.00
2024-01-05T03:10:32.376Z,791.00
2024-01-05T03:11:32.395Z,742.00
2024-01-05T03:12:32.462Z,728.00
2024-01-05T03:13:32.476Z,742.00
2024-01-05T03:14:32.539Z,754.00
2024-01-05T03:15:32.639Z,743.00
2024-01-05T03:16:32.650Z,741.00
2024-01-05T03:17:32.772Z,706.00
2024-01-05T03:18:32.911Z,658.00
2024-01-05T03:19:32.906Z,628.00
2024-01-05T03:20:32.935Z,610.00
2024-01-05T03:21:33.066Z,597.00
2024-01-05T03:22:33.015Z,600.00
2024-01-05T03:23:33.088Z,598.00
2024-01-05T03:24:33.206Z,600.00
2024-01-05T03:25:33.222Z,601.00
2024-01-05T03:26:33.363Z,600.00
2024-01-05T03:27:33.371Z,598.00
2024-01-05T03:28:33.369Z,599.00
2024-01-05T03:29:33.381Z,599.00
2024-01-05T03:30:33.501Z,600.00
2024-01-05T03:31:33.568Z,599.00
2024-01-05T03:32:33.487Z,602.00
2024-01-05T03:33:33.565Z,601.00
2024-01-05T03:34:33.532Z,603.00
2024-01-05T03:35:33.547Z,602.00
2024-01-05T03:36:33.650Z,600.00
2024-01-05T03:37:33.597Z,604.00
2024-01-05T03:38:33.627Z,618.00
2024-01-05T03:39:33.881Z,639.00
2024-01-05T03:40:33.729Z,701.00
2024-01-05T03:41:33.794Z,801.00
2024-01-05T03:42:33.965Z,938.00
2024-01-05T03:43:33.962Z,1070.00
2024-01-05T03:44:34.013Z,1143.00
2024-01-05T03:45:34.152Z,1199.00
2024-01-05T03:46:34.200Z,1265.00
2024-01-05T03:47:34.247Z,1300.00
2024-01-05T03:48:34.471Z,1316.00
2024-01-05T03:49:34.406Z,1334.00
2024-01-05T03:50:34.420Z,1330.00
2024-01-05T03:51:34.527Z,1331.00
2024-01-05T03:52:34.573Z,1331.00
2024-01-05T03:53:34.584Z,1335.00
2024-01-05T03:54:34.710Z,1339.00
2024-01-05T03:55:34.754Z,1335.00
2024-01-05T03:56:34.820Z,1338.00
2024-01-05T03:57:34.867Z,1312.00
2024-01-05T03:58:34.908Z,1296.00
2024-01-05T03:59:34.967Z,1295.00
2024-01-05T04:00:35.155Z,1313.00
2024-01-05T04:01:35.142Z,1328.00
2024-01-05T04:02:35.279Z,1361.00
2024-01-05T04:03:35.396Z,1377.00
2024-01-05T04:04:35.586Z,1390.00
2024-01-05T04:05:35.453Z,1404.00
2024-01-05T04:06:35.578Z,1416.00
2024-01-05T04:07:35.514Z,1412.00
2024-01-05T04:08:35.596Z,1404.00
2024-01-05T04:09:35.789Z,1395.00
2024-01-05T04:10:35.724Z,1382.00
2024-01-05T04:11:35.761Z,1381.00
2024-01-05T04:12:35.881Z,1396.00
2024-01-05T04:13:35.881Z,1407.00
2024-01-05T04:14:35.921Z,1425.00
2024-01-05T04:15:36.809Z,1429.00
2024-01-05T04:16:36.151Z,1430.00
2024-01-05T04:17:36.071Z,1429.00
2024-01-05T04:18:36.191Z,1432.00
2024-01-05T04:19:36.323Z,1432.00
2024-01-05T04:20:36.343Z,1418.00
2024-01-05T04:21:36.483Z,1408.00
2024-01-05T04:22:36.493Z,1399.00
2024-01-05T04:23:36.566Z,1404.00
2024-01-05T04:24:36.746Z,1383.00
2024-01-05T04:25:36.690Z,1374.00
2024-01-05T04:26:36.739Z,1355.00
2024-01-05T04:27:36.819Z,1346.00
2024-01-05T04:28:36.866Z,1346.00
2024-01-05T04:29:36.899Z,1343.00
2024-01-05T04:30:37.110Z,1319.00
2024-01-05T04:31:37.122Z,1293.00
2024-01-05T04:32:37.190Z,1271.00
2024-01-05T04:33:37.340Z,1270.00
2024-01-05T04:34:37.366Z,1245.00
2024-01-05T04:35:37.406Z,1235.00
2024-01-05T04:36:37.541Z,1221.00
2024-01-05T04:37:37.520Z,1192.00
2024-01-05T04:38:37.593Z,1158.00
2024-01-05T04:39:38.227Z,1140.00
2024-01-05T04:40:37.760Z,1121.00
2024-01-05T04:41:37.854Z,1108.00
2024-01-05T04:42:37.974Z,1094.00
2024-01-05T04:43:38.041Z,1084.00
2024-01-05T04:44:38.115Z,1069.00
2024-01-05T04:45:38.217Z,1058.00
2024-01-05T04:46:38.369Z,1043.00
2024-01-05T04:47:38.364Z,1015.00
2024-01-05T04:48:38.683Z,1008.00
2024-01-05T04:49:38.643Z,984.00
2024-01-05T04:50:38.594Z,991.00
2024-01-05T04:51:39.658Z,994.00
2024-01-05T04:52:38.685Z,958.00
2024-01-05T04:53:38.805Z,946.00
2024-01-05T04:54:38.919Z,945.00
2024-01-05T04:55:39.030Z,935.00
2024-01-05T04:56:39.068Z,928.00
2024-01-05T04:57:39.204Z,928.00
2024-01-05T04:58:39.314Z,938.00
2024-01-05T04:59:39.342Z,956.00
2024-01-05T05:00:39.624Z,957.00
2024-01-05T05:01:39.479Z,974.00
2024-01-05T05:02:39.564Z,995.00
2024-01-05T05:03:39.645Z,1004.00
2024-01-05T05:04:39.724Z,1012.00
2024-01-05T05:05:39.870Z,1020.00
2024-01-05T05:06:40.232Z,1034.00
2024-01-05T05:07:39.846Z,1048.00
2024-01-05T05:08:39.906Z,1061.00
2024-01-05T05:09:39.997Z,1075.00
2024-01-05T05:10:40.060Z,1085.00
2024-01-05T05:11:40.115Z,1100.00
2024-01-05T05:12:40.257Z,1084.00
2024-01-05T05:13:40.264Z,1083.00
2024-01-05T05:14:40.383Z,1085.00
2024-01-05T05:15:40.494Z,1075.00
2024-01-05T05:16:48.408Z,600.00
2024-01-05T05:17:49.886Z,600.00
2024-01-05T05:18:48.526Z,600.00
2024-01-05T05:19:48.626Z,600.00
2024-01-05T05:20:48.319Z,600.00
2024-01-05T05:21:48.361Z,600.00
2024-01-05T05:22:48.380Z,600.00
2024-01-05T05:23:48.422Z,600.00
2024-01-05T05:24:48.432Z,604.00
2024-01-05T05:25:48.428Z,607.00
2024-01-05T05:26:48.436Z,612.00
2024-01-05T05:27:48.447Z,609.00
2024-01-05T05:28:48.428Z,611.00
2024-01-05T05:29:48.402Z,602.00
2024-01-05T05:30:48.516Z,604.00
2024-01-05T05:31:48.438Z,606.00
2024-01-05T05:32:48.465Z,614.00
2024-01-05T05:33:48.484Z,623.00
2024-01-05T05:34:48.440Z,629.00
2024-01-05T05:35:48.297Z,628.00
2024-01-05T05:36:48.306Z,628.00
2024-01-05T05:37:48.332Z,631.00
2024-01-05T05:38:48.295Z,630.00
2024-01-05T05:39:48.312Z,637.00
2024-01-05T05:40:48.288Z,638.00
2024-01-05T05:41:48.243Z,652.00
2024-01-05T05:42:48.191Z,655.00
2024-01-05T05:43:48.234Z,662.00
2024-01-05T05:44:48.202Z,682.00
2024-01-05T05:45:48.223Z,677.00
2024-01-05T05:46:48.241Z,673.00
2024-01-05T05:47:48.294Z,667.00
2024-01-05T05:48:48.520Z,670.00
2024-01-05T05:49:48.387Z,664.00
2024-01-05T05:50:48.313Z,670.00
2024-01-05T05:51:48.513Z,679.00
2024-01-05T05:52:48.313Z,677.00
2024-01-05T05:53:48.353Z,671.00
2024-01-05T05:54:48.344Z,669.00
2024-01-05T05:55:48.357Z,657.00
2024-01-05T05:56:48.371Z,654.00
2024-01-05T05:57:48.448Z,647.00
2024-01-05T05:58:48.403Z,639.00
2024-01-05T05:59:48.400Z,629.00
2024-01-05T06:00:48.457Z,609.00
2024-01-05T06:01:48.422Z,599.00
2024-01-05T06:02:48.394Z,600.00
2024-01-05T06:03:48.513Z,600.00
2024-01-05T06:04:48.512Z,600.00
2024-01-05T06:05:48.507Z,600.00
2024-01-05T06:06:48.571Z,600.00
2024-01-05T06:07:48.523Z,599.00
2024-01-05T06:08:48.516Z,600.00
2024-01-05T06:09:48.515Z,601.00
2024-01-05T06:10:48.580Z,602.00
2024-01-05T06:11:48.580Z,606.00
2024-01-05T06:12:48.583Z,605.00
2024-01-05T06:13:48.566Z,605.00
2024-01-05T06:14:48.634Z,615.00
2024-01-05T06:15:48.653Z,622.00
2024-01-05T06:16:48.643Z,635.00
2024-01-05T06:17:48.671Z,646.00
2024-01-05T06:18:48.824Z,656.00
2024-01-05T06:19:48.931Z,659.00
2024-01-05T06:20:48.761Z,658.00
2024-01-05T06:21:49.237Z,654.00
2024-01-05T06:22:48.775Z,643.00
2024-01-05T06:23:48.717Z,643.00
2024-01-05T06:24:48.695Z,641.00
2024-01-05T06:25:48.712Z,656.00
2024-01-05T06:26:48.744Z,680.00
2024-01-05T06:27:48.852Z,725.00
2024-01-05T06:28:48.733Z,783.00
2024-01-05T06:29:48.734Z,835.00
2024-01-05T06:30:48.791Z,850.00
2024-01-05T06:31:48.801Z,876.00
2024-01-05T06:32:48.717Z,881.00
2024-01-05T06:33:48.885Z,879.00
2024-01-05T06:34:48.844Z,853.00
2024-01-05T06:35:48.728Z,842.00
2024-01-05T06:36:48.706Z,824.00
2024-01-05T06:37:48.748Z,807.00
2024-01-05T06:38:48.791Z,779.00
2024-01-05T06:39:48.767Z,772.00
2024-01-05T06:40:48.785Z,769.00
2024-01-05T06:41:48.802Z,767.00
2024-01-05T06:42:48.909Z,770.00
2024-01-05T06:43:48.878Z,778.00
2024-01-05T06:44:48.910Z,761.00
2024-01-05T06:45:48.924Z,767.00
2024-01-05T06:46:48.892Z,757.00
2024-01-05T06:47:49.034Z,752.00
2024-01-05T06:48:49.078Z,766.00
2024-01-05T06:49:49.163Z,776.00
2024-01-05T06:50:49.016Z,793.00
2024-01-05T06:51:49.032Z,805.00
2024-01-05T06:52:48.934Z,804.00
2024-01-05T06:53:48.969Z,809.00
2024-01-05T06:54:48.995Z,824.00
2024-01-05T06:55:49.005Z,817.00
2024-01-05T06:56:49.030Z,824.00
2024-01-05T06:57:49.015Z,837.00
2024-01-05T06:58:49.047Z,844.00
2024-01-05T06:59:49.056Z,842.00
2024-01-05T07:00:49.283Z,847.00
2024-01-05T07:01:49.118Z,842.00
2024-01-05T07:02:49.164Z,829.00
2024-01-05T07:03:49.246Z,822.00
2024-01-05T07:04:49.187Z,825.00
2024-01-05T07:05:49.219Z,826.00
2024-01-05T07:06:49.429Z,831.00
2024-01-05T07:07:49.215Z,846.00
2024-01-05T07:08:49.204Z,852.00
2024-01-05T07:09:49.210Z,857.00
2024-01-05T07:10:49.172Z,846.00
2024-01-05T07:11:49.190Z,862.00
2024-01-05T07:12:49.175Z,861.00
2024-01-05T07:13:49.175Z,869.00
2024-01-05T07:14:49.219Z,868.00
2024-01-05T07:15:49.175Z,858.00
2024-01-05T07:16:49.147Z,851.00
2024-01-05T07:17:49.236Z,832.00
2024-01-05T07:18:49.354Z,817.00
2024-01-05T07:19:49.149Z,803.00
2024-01-05T07:20:49.175Z,793.00
2024-01-05T07:21:49.165Z,789.00
2024-01-05T07:22:49.152Z,794.00
2024-01-05T07:23:49.155Z,775.00
2024-01-05T07:24:49.139Z,770.00
2024-01-05T07:25:49.162Z,764.00
2024-01-05T07:26:49.192Z,747.00
2024-01-05T07:27:49.182Z,754.00
2024-01-05T07:28:49.163Z,752.00
2024-01-05T07:29:49.173Z,752.00
2024-01-05T07:30:49.214Z,754.00
2024-01-05T07:31:49.165Z,758.00
2024-01-05T07:32:49.236Z,777.00
2024-01-05T07:33:49.205Z,789.00
2024-01-05T07:34:49.165Z,805.00
2024-01-05T07:35:49.162Z,832.00
2024-01-05T07:36:49.181Z,864.00
2024-01-05T07:37:49.159Z,880.00
2024-01-05T07:38:49.131Z,893.00
2024-01-05T07:39:49.086Z,912.00
2024-01-05T07:40:49.088Z,954.00
2024-01-05T07:41:49.114Z,971.00
2024-01-05T07:42:49.146Z,1000.00
2024-01-05T07:43:49.180Z,1017.00
2024-01-05T07:44:49.186Z,1040.00
2024-01-05T07:45:51.189Z,1047.00
2024-01-05T07:46:49.179Z,1053.00
2024-01-05T07:47:49.242Z,1081.00
2024-01-05T07:48:49.276Z,1062.00
2024-01-05T07:49:49.310Z,1060.00
2024-01-05T07:50:49.192Z,1044.00
2024-01-05T07:51:49.847Z,1026.00
2024-01-05T07:52:49.198Z,990.00
2024-01-05T07:53:49.203Z,926.00
2024-01-05T07:54:49.226Z,919.00
2024-01-05T07:55:49.230Z,885.00
2024-01-05T07:56:49.253Z,859.00
2024-01-05T07:57:49.478Z,838.00
2024-01-05T07:58:49.298Z,809.00
2024-01-05T07:59:49.277Z,796.00
2024-01-05T08:00:49.512Z,776.00
2024-01-05T08:01:49.345Z,762.00
2024-01-05T08:02:49.358Z,734.00
2024-01-05T08:03:49.579Z,722.00
2024-01-05T08:04:49.397Z,673.00
2024-01-05T08:05:49.466Z,647.00
2024-01-05T08:06:49.516Z,623.00
2024-01-05T08:07:49.454Z,600.00
2024-01-05T08:08:49.523Z,600.00
2024-01-05T08:09:49.546Z,598.00
2024-01-05T08:10:49.544Z,600.00
2024-01-05T08:11:49.573Z,600.00
2024-01-05T08:12:49.608Z,601.00
2024-01-05T08:13:49.571Z,603.00
2024-01-05T08:14:49.590Z,606.00
2024-01-05T08:15:49.631Z,619.00
2024-01-05T08:16:49.566Z,633.00
2024-01-05T08:17:49.538Z,639.00
2024-01-05T08:18:49.605Z,606.00
2024-01-05T08:19:49.549Z,605.00
2024-01-05T08:20:49.548Z,616.00
2024-01-05T08:21:50.017Z,626.00
2024-01-05T08:22:49.497Z,649.00
2024-01-05T08:23:49.464Z,671.00
2024-01-05T08:24:49.493Z,714.00
2024-01-05T08:25:49.486Z,755.00
2024-01-05T08:26:49.515Z,805.00
2024-01-05T08:27:49.512Z,836.00
2024-01-05T08:28:49.500Z,861.00
2024-01-05T08:29:49.510Z,836.00
2024-01-05T08:30:49.599Z,730.00
2024-01-05T08:31:49.904Z,648.00
2024-01-05T08:32:49.551Z,624.00
2024-01-05T08:33:49.578Z,601.00
2024-01-05T08:34:49.477Z,602.00
2024-01-05T08:35:49.424Z,614.00
2024-01-05T08:36:49.422Z,615.00
2024-01-05T08:37:49.453Z,604.00
2024-01-05T08:38:49.463Z,620.00
2024-01-05T08:39:49.438Z,649.00
2024-01-05T08:40:49.402Z,722.00
2024-01-05T08:41:49.421Z,789.00
2024-01-05T08:42:49.467Z,847.00
2024-01-05T08:43:49.472Z,869.00
2024-01-05T08:44:49.422Z,846.00
2024-01-05T08:45:49.471Z,866.00
2024-01-05T08:46:49.388Z,881.00
2024-01-05T08:47:49.454Z,919.00
2024-01-05T08:48:49.467Z,936.00
2024-01-05T08:49:49.433Z,973.00
2024-01-05T08:50:49.428Z,1004.00
2024-01-05T08:51:49.769Z,967.00
2024-01-05T08:52:49.426Z,932.00
2024-01-05T08:53:49.433Z,910.00
2024-01-05T08:54:50.594Z,869.00
2024-01-05T08:55:49.465Z,821.00
2024-01-05T08:56:49.452Z,774.00
2024-01-05T08:57:49.489Z,754.00
2024-01-05T08:58:49.500Z,731.00
2024-01-05T08:59:49.548Z,732.00
2024-01-05T09:00:49.627Z,707.00
2024-01-05T09:01:49.643Z,698.00
2024-01-05T09:02:49.711Z,687.00
2024-01-05T09:03:49.771Z,701.00
2024-01-05T09:04:49.728Z,704.00
2024-01-05T09:05:49.750Z,725.00
2024-01-05T09:06:49.819Z,740.00
2024-01-05T09:07:49.808Z,739.00
2024-01-05T09:08:49.817Z,758.00
2024-01-05T09:09:49.844Z,772.00
2024-01-05T09:10:49.892Z,794.00
2024-01-05T09:11:49.893Z,803.00
2024-01-05T09:12:49.979Z,759.00
2024-01-05T09:13:49.860Z,731.00
2024-01-05T09:14:49.828Z,673.00
2024-01-05T09:15:49.881Z,658.00
2024-01-05T09:16:49.814Z,635.00
2024-01-05T09:17:49.860Z,601.00
2024-01-05T09:18:49.929Z,599.00
2024-01-05T09:19:49.846Z,627.00
2024-01-05T09:20:49.840Z,696.00
2024-01-05T09:21:49.830Z,771.00
2024-01-05T09:22:49.898Z,829.00
2024-01-05T09:23:49.843Z,831.00
2024-01-05T09:24:49.859Z,812.00
2024-01-05T09:25:49.877Z,796.00
2024-01-05T09:26:49.896Z,763.00
2024-01-05T09:27:49.884Z,760.00
2024-01-05T09:28:49.853Z,741.00
2024-01-05T09:29:49.810Z,734.00
2024-01-05T09:30:51.817Z,736.00
2024-01-05T09:31:49.842Z,737.00
2024-01-05T09:32:49.736Z,739.00
2024-01-05T09:33:49.740Z,756.00
2024-01-05T09:34:49.665Z,786.00
2024-01-05T09:35:49.582Z,845.00
2024-01-05T09:36:49.579Z,879.00
2024-01-05T09:37:49.482Z,902.00
2024-01-05T09:38:49.442Z,907.00
2024-01-05T09:39:49.530Z,932.00
2024-01-05T09:40:49.392Z,938.00
2024-01-05T09:41:49.350Z,961.00
2024-01-05T09:42:49.311Z,958.00
2024-01-05T09:43:49.243Z,978.00
2024-01-05T09:44:49.215Z,997.00
2024-01-05T09:45:49.219Z,1009.00
2024-01-05T09:46:49.144Z,987.00
2024-01-05T09:47:49.164Z,973.00
2024-01-05T09:48:54.616Z,970.00
2024-01-05T09:49:50.137Z,971.00
2024-01-05T09:50:49.001Z,977.00
2024-01-05T09:51:48.930Z,993.00
2024-01-05T09:52:48.892Z,1020.00
2024-01-05T09:53:48.870Z,1045.00
2024-01-05T09:54:48.851Z,1044.00
2024-01-05T09:55:48.794Z,1050.00
2024-01-05T09:56:48.731Z,1058.00
2024-01-05T09:57:48.713Z,1059.00
2024-01-05T09:58:48.638Z,1082.00
2024-01-05T09:59:48.590Z,1093.00
2024-01-05T10:00:48.577Z,1094.00
2024-01-05T10:01:48.502Z,1089.00
2024-01-05T10:02:48.535Z,1099.00
2024-01-05T10:03:48.550Z,1099.00
2024-01-05T10:04:48.505Z,1081.00
2024-01-05T10:05:48.479Z,1057.00
2024-01-05T10:06:48.506Z,1045.00
2024-01-05T10:07:48.470Z,1019.00
2024-01-05T10:08:48.450Z,971.00
2024-01-05T10:09:48.433Z,954.00
2024-01-05T10:10:48.430Z,944.00
2024-01-05T10:11:48.437Z,950.00
2024-01-05T10:12:48.409Z,970.00
2024-01-05T10:13:48.389Z,974.00
2024-01-05T10:14:48.377Z,977.00
2024-01-05T10:15:48.377Z,994.00
2024-01-05T10:16:48.360Z,1003.00
2024-01-05T10:17:48.444Z,1008.00
2024-01-05T10:18:48.395Z,1009.00
2024-01-05T10:19:48.427Z,1032.00
2024-01-05T10:20:48.356Z,1041.00
2024-01-05T10:21:48.435Z,1037.00
2024-01-05T10:22:48.329Z,1041.00
2024-01-05T10:23:48.294Z,1025.00
2024-01-05T10:24:48.390Z,998.00
2024-01-05T10:25:48.346Z,954.00
2024-01-05T10:26:48.299Z,921.00
2024-01-05T10:27:48.278Z,895.00
2024-01-05T10:28:48.237Z,888.00
2024-01-05T10:29:48.230Z,892.00
2024-01-05T10:30:48.372Z,895.00
2024-01-05T10:31:48.210Z,908.00
2024-01-05T10:32:48.219Z,941.00
2024-01-05T10:33:48.237Z,969.00
2024-01-05T10:34:48.355Z,1004.00
2024-01-05T10:35:48.219Z,1023.00
2024-01-05T10:36:48.251Z,1035.00
2024-01-05T10:37:48.251Z,1045.00
2024-01-05T10:38:48.248Z,1063.00
2024-01-05T10:39:48.369Z,1058.00
2024-01-05T10:40:48.214Z,999.00
2024-01-05T10:41:48.540Z,952.00
2024-01-05T10:42:48.243Z,927.00
2024-01-05T10:43:48.188Z,889.00
2024-01-05T10:44:48.217Z,853.00
2024-01-05T10:45:48.288Z,832.00
2024-01-05T10:46:48.225Z,823.00
2024-01-05T10:47:48.410Z,820.00
2024-01-05T10:48:48.358Z,812.00
2024-01-05T10:49:48.351Z,812.00
2024-01-05T10:50:48.287Z,835.00
2024-01-05T10:51:48.282Z,811.00
2024-01-05T10:52:48.268Z,816.00
2024-01-05T10:53:48.222Z,809.00
2024-01-05T10:54:48.271Z,788.00
2024-01-05T10:55:48.289Z,712.00
2024-01-05T10:56:48.363Z,630.00
2024-01-05T10:57:48.363Z,590.00
2024-01-05T10:58:48.315Z,596.00
2024-01-05T10:59:48.290Z,600.00
2024-01-05T11:00:48.350Z,601.00
2024-01-05T11:01:48.281Z,600.00
2024-01-05T11:02:48.297Z,602.00
2024-01-05T11:03:48.358Z,601.00
2024-01-05T11:04:48.205Z,603.00
2024-01-05T11:05:48.333Z,626.00
2024-01-05T11:06:48.290Z,631.00
2024-01-05T11:07:48.188Z,627.00
2024-01-05T11:08:48.208Z,611.00
2024-01-05T11:09:48.229Z,613.00
2024-01-05T11:10:48.165Z,616.00
2024-01-05T11:11:48.138Z,621.00
2024-01-05T11:12:48.131Z,622.00
2024-01-05T11:13:48.145Z,632.00
2024-01-05T11:14:48.115Z,656.00
2024-01-05T11:15:48.133Z,707.00
2024-01-05T11:16:48.050Z,792.00
2024-01-05T11:17:48.052Z,900.00
2024-01-05T11:18:47.999Z,980.00
2024-01-05T11:19:47.953Z,1077.00
2024-01-05T11:20:47.808Z,1165.00
2024-01-05T11:21:47.841Z,1224.00
2024-01-05T11:22:47.730Z,1264.00
2024-01-05T11:23:47.724Z,1302.00
2024-01-05T11:24:47.802Z,1320.00
2024-01-05T11:25:47.659Z,1360.00
2024-01-05T11:26:47.623Z,1391.00
2024-01-05T11:27:47.822Z,1318.00
2024-01-05T11:28:47.490Z,1365.00
2024-01-05T11:29:47.476Z,1381.00
2024-01-05T11:30:47.522Z,1454.00
2024-01-05T11:31:47.452Z,1450.00
2024-01-05T11:32:47.641Z,1463.00
2024-01-05T11:33:47.504Z,1500.00
2024-01-05T11:34:47.396Z,1522.00
2024-01-05T11:35:47.318Z,1466.00
2024-01-05T11:36:47.308Z,1441.00
2024-01-05T11:37:47.231Z,1433.00
2024-01-05T11:38:47.186Z,1418.00
2024-01-05T11:39:47.379Z,1361.00
2024-01-05T11:40:49.160Z,1348.00
2024-01-05T11:41:47.079Z,1364.00
2024-01-05T11:42:47.139Z,1366.00
2024-01-05T11:43:46.986Z,1390.00
2024-01-05T11:44:46.929Z,1391.00
2024-01-05T11:45:46.976Z,1375.00
2024-01-05T11:46:46.821Z,1352.00
2024-01-05T11:47:47.002Z,1339.00
2024-01-05T11:48:46.898Z,1306.00
2024-01-05T11:49:46.762Z,1289.00
2024-01-05T11:50:46.642Z,1268.00
2024-01-05T11:51:46.650Z,1194.00
2024-01-05T11:52:46.512Z,1175.00
2024-01-05T11:53:46.463Z,1081.00
2024-01-05T11:54:46.478Z,1006.00
2024-01-05T11:55:46.362Z,959.00
2024-01-05T11:56:46.293Z,898.00
2024-01-05T11:57:46.283Z,865.00
2024-01-05T11:58:46.197Z,836.00
2024-01-05T11:59:47.891Z,833.00
2024-01-05T12:00:46.344Z,804.00
2024-01-05T12:01:46.121Z,801.00
2024-01-05T12:02:46.071Z,778.00
2024-01-05T12:03:46.222Z,758.00
2024-01-05T12:04:46.196Z,718.00
2024-01-05T12:05:49.917Z,681.00
2024-01-05T12:06:47.034Z,646.00
2024-01-05T12:07:45.933Z,616.00
2024-01-05T12:08:45.896Z,598.00
2024-01-05T12:09:45.887Z,600.00
2024-01-05T12:10:45.753Z,593.00
2024-01-05T12:11:45.696Z,605.00
2024-01-05T12:12:45.756Z,616.00
2024-01-05T12:13:45.579Z,623.00
2024-01-05T12:14:45.532Z,623.00
2024-01-05T12:15:52.880Z,626.00
2024-01-05T12:16:46.400Z,627.00
2024-01-05T12:17:45.408Z,630.00
2024-01-05T12:18:45.909Z,639.00
2024-01-05T12:19:45.411Z,654.00
2024-01-05T12:20:45.167Z,730.00